createdAt,value
2017-12-01T00:01:08.636Z,10.18
2017-12-01T00:03:36.164Z,9.05
2017-12-01T00:06:03.640Z,14.10
2017-12-01T00:08:31.111Z,10.00
2017-12-01T00:10:58.613Z,9.80
2017-12-01T00:13:26.078Z,14.70
2017-12-01T00:15:53.596Z,11.95
2017-12-01T00:18:21.094Z,9.55
2017-12-01T00:20:48.591Z,8.57
2017-12-01T00:23:16.085Z,8.82
2017-12-01T00:25:44.351Z,8.65
2017-12-01T00:28:12.597Z,7.72
2017-12-01T00:30:40.071Z,8.02
2017-12-01T00:33:07.582Z,10.18
2017-12-01T00:35:35.060Z,8.55
2017-12-01T00:38:02.581Z,7.72
2017-12-01T00:40:30.821Z,9.05
2017-12-01T00:42:58.330Z,9.82
2017-12-01T00:45:25.796Z,8.93
2017-12-01T00:47:53.279Z,11.65
2017-12-01T00:50:20.785Z,15.48
2017-12-01T00:52:49.023Z,14.52
2017-12-01T00:55:16.548Z,13.25
2017-12-01T00:57:44.048Z,15.77
2017-12-01T01:00:11.539Z,13.50
2017-12-01T01:02:39.815Z,14.30
2017-12-01T01:05:08.082Z,12.52
2017-12-01T01:07:36.362Z,11.27
2017-12-01T01:10:04.602Z,13.43
2017-12-01T01:12:32.128Z,12.63
2017-12-01T01:14:59.638Z,15.98
2017-12-01T01:17:27.112Z,13.98
2017-12-01T01:19:55.382Z,18.60
2017-12-01T01:22:22.863Z,14.85
2017-12-01T01:24:51.113Z,17.00
2017-12-01T01:27:18.612Z,15.80
2017-12-01T01:29:46.120Z,15.60
2017-12-01T01:32:13.637Z,18.05
2017-12-01T01:34:41.127Z,28.95
2017-12-01T01:37:08.649Z,25.02
2017-12-01T01:39:36.131Z,29.45
2017-12-01T01:42:03.620Z,48.83
2017-12-01T01:44:31.158Z,41.53
2017-12-01T01:46:58.644Z,45.28
2017-12-01T01:49:27.052Z,61.67
2017-12-01T01:51:54.521Z,20.02
2017-12-01T01:54:21.993Z,22.87
2017-12-01T01:56:49.519Z,24.17
2017-12-01T01:59:17.760Z,18.58
2017-12-01T02:01:45.277Z,21.17
2017-12-01T02:04:12.756Z,18.52
2017-12-01T02:06:40.241Z,21.45
2017-12-01T02:09:07.734Z,18.27
2017-12-01T02:11:35.984Z,18.45
2017-12-01T02:14:04.253Z,19.10
2017-12-01T02:16:31.733Z,23.27
2017-12-01T02:18:59.983Z,15.55
2017-12-01T02:21:27.508Z,16.73
2017-12-01T02:23:54.982Z,19.00
2017-12-01T02:26:22.488Z,20.23
2017-12-01T02:28:50.728Z,18.02
2017-12-01T02:31:18.218Z,18.52
2017-12-01T02:33:45.729Z,17.95
2017-12-01T02:36:13.230Z,19.95
2017-12-01T02:38:42.263Z,19.37
2017-12-01T02:41:09.751Z,18.52
2017-12-01T02:43:37.248Z,19.45
2017-12-01T02:46:04.710Z,20.23
2017-12-01T02:48:32.981Z,21.55
2017-12-01T02:51:00.489Z,21.05
2017-12-01T02:53:27.947Z,16.55
2017-12-01T02:55:55.437Z,17.05
2017-12-01T02:58:22.957Z,17.27
2017-12-01T03:00:50.452Z,15.82
2017-12-01T03:03:17.992Z,17.90
2017-12-01T03:05:45.482Z,16.30
2017-12-01T03:08:12.971Z,20.88
2017-12-01T03:10:41.244Z,20.15
2017-12-01T03:13:09.504Z,21.37
2017-12-01T03:15:37.015Z,19.70
2017-12-01T03:18:04.474Z,17.55
2017-12-01T03:20:31.984Z,22.60
2017-12-01T03:23:01.004Z,19.92
2017-12-01T03:25:28.777Z,19.65
2017-12-01T03:27:56.283Z,19.58
2017-12-01T03:30:23.744Z,20.17
2017-12-01T03:32:51.252Z,20.30
2017-12-01T03:35:18.742Z,22.00
2017-12-01T03:37:46.267Z,19.62
2017-12-01T03:40:13.771Z,24.50
2017-12-01T03:42:41.252Z,21.48
2017-12-01T03:45:08.748Z,21.42
2017-12-01T03:47:36.241Z,24.33
2017-12-01T03:50:03.755Z,23.77
2017-12-01T03:52:31.259Z,24.80
2017-12-01T03:54:58.765Z,19.80
2017-12-01T03:57:27.002Z,22.67
2017-12-01T03:59:54.479Z,19.55
2017-12-01T04:02:21.988Z,22.42
2017-12-01T04:04:49.451Z,20.70
2017-12-01T04:07:16.968Z,18.37
2017-12-01T04:09:45.212Z,20.60
2017-12-01T04:12:12.711Z,21.92
2017-12-01T04:14:40.979Z,18.30
2017-12-01T04:17:09.264Z,17.83
2017-12-01T04:19:37.515Z,17.83
2017-12-01T04:22:04.999Z,18.75
2017-12-01T04:24:33.300Z,13.38
2017-12-01T04:27:00.791Z,17.05
2017-12-01T04:29:28.324Z,21.08
2017-12-01T04:31:55.807Z,20.85
2017-12-01T04:34:23.307Z,20.15
2017-12-01T04:36:51.582Z,18.87
2017-12-01T04:39:19.852Z,16.25
2017-12-01T04:41:47.356Z,20.62
2017-12-01T04:44:14.841Z,22.87
2017-12-01T04:46:42.367Z,18.05
2017-12-01T04:49:09.848Z,19.83
2017-12-01T04:51:37.343Z,21.95
2017-12-01T04:54:04.871Z,19.17
2017-12-01T04:56:32.337Z,19.42
2017-12-01T04:58:59.860Z,21.95
2017-12-01T05:01:27.341Z,17.17
2017-12-01T05:03:54.824Z,21.33
2017-12-01T05:06:22.323Z,21.55
2017-12-01T05:08:50.505Z,25.25
2017-12-01T05:11:18.025Z,22.52
2017-12-01T05:13:45.505Z,25.58
2017-12-01T05:16:13.789Z,20.88
2017-12-01T05:18:42.063Z,22.15
2017-12-01T05:21:10.309Z,23.65
2017-12-01T05:23:37.832Z,24.20
2017-12-01T05:26:05.328Z,27.08
2017-12-01T05:28:34.322Z,30.35
2017-12-01T05:31:02.160Z,23.20
2017-12-01T05:33:29.641Z,25.62
2017-12-01T05:35:57.157Z,26.37
2017-12-01T05:38:24.669Z,38.92
2017-12-01T05:40:52.156Z,28.98
2017-12-01T05:43:20.410Z,29.27
2017-12-01T05:45:50.409Z,32.90
2017-12-01T05:48:17.943Z,31.45
2017-12-01T05:50:45.411Z,27.83
2017-12-01T05:53:12.919Z,30.77
2017-12-01T05:55:40.442Z,28.85
2017-12-01T05:58:07.912Z,31.15
2017-12-01T06:00:35.427Z,32.47
2017-12-01T06:03:02.907Z,28.33
2017-12-01T06:05:30.402Z,26.90
2017-12-01T06:07:58.699Z,28.02
2017-12-01T06:10:26.950Z,30.83
2017-12-01T06:12:54.448Z,31.15
2017-12-01T06:15:21.918Z,37.20
2017-12-01T06:17:49.448Z,32.22
2017-12-01T06:20:17.687Z,31.42
2017-12-01T06:22:45.181Z,31.00
2017-12-01T06:25:13.440Z,35.13
2017-12-01T06:27:40.960Z,35.03
2017-12-01T06:30:08.476Z,31.45
2017-12-01T06:32:36.714Z,35.70
2017-12-01T06:35:04.225Z,29.85
2017-12-01T06:37:31.720Z,36.53
2017-12-01T06:39:59.254Z,37.53
2017-12-01T06:42:26.763Z,32.25
2017-12-01T06:44:54.273Z,27.92
2017-12-01T06:47:21.791Z,26.42
2017-12-01T06:49:49.281Z,28.20
2017-12-01T06:52:16.786Z,31.10
2017-12-01T06:54:48.897Z,30.17
2017-12-01T06:57:16.503Z,28.92
2017-12-01T06:59:44.029Z,29.58
2017-12-01T07:02:11.522Z,28.48
2017-12-01T07:04:39.082Z,28.17
2017-12-01T07:07:06.710Z,32.97
2017-12-01T07:09:34.201Z,28.33
2017-12-01T07:12:01.718Z,37.72
2017-12-01T07:14:29.961Z,33.33
2017-12-01T07:16:57.465Z,38.90
2017-12-01T07:19:24.934Z,35.83
2017-12-01T07:21:52.421Z,41.47
2017-12-01T07:24:19.927Z,49.75
2017-12-01T07:26:59.427Z,58.20
2017-12-01T07:29:26.920Z,43.92
2017-12-01T07:31:55.160Z,44.90
2017-12-01T07:34:22.668Z,43.15
2017-12-01T07:36:50.219Z,48.67
2017-12-01T07:39:18.622Z,51.08
2017-12-01T07:41:46.094Z,38.80
2017-12-01T07:47:27.138Z,31.98
2017-12-01T07:49:55.403Z,31.45
2017-12-01T07:52:22.939Z,46.00
2017-12-01T07:54:50.431Z,31.83
2017-12-01T07:57:17.887Z,27.27
2017-12-01T07:59:45.390Z,33.92
2017-12-01T08:02:12.912Z,36.78
2017-12-01T08:04:41.162Z,35.45
2017-12-01T08:07:08.668Z,33.08
2017-12-01T08:09:36.177Z,33.45
2017-12-01T08:12:03.655Z,39.55
2017-12-01T08:14:31.167Z,39.67
2017-12-01T08:17:10.543Z,42.20
2017-12-01T08:19:38.064Z,42.05
2017-12-01T08:22:17.392Z,45.55
2017-12-01T08:24:57.865Z,44.65
2017-12-01T08:27:25.338Z,47.15
2017-12-01T08:29:53.018Z,46.20
2017-12-01T08:32:20.515Z,55.65
2017-12-01T08:34:48.763Z,51.10
2017-12-01T08:37:16.307Z,45.63
2017-12-01T08:39:43.784Z,48.78
2017-12-01T08:42:11.254Z,53.92
2017-12-01T08:44:39.551Z,57.62
2017-12-01T08:47:07.045Z,57.53
2017-12-01T08:49:34.527Z,54.67
2017-12-01T08:52:02.024Z,58.20
2017-12-01T08:54:29.501Z,48.28
2017-12-01T08:56:57.019Z,52.60
2017-12-01T08:59:25.276Z,52.00
2017-12-01T09:01:52.854Z,55.83
2017-12-01T09:04:20.310Z,51.00
2017-12-01T09:06:47.783Z,65.60
2017-12-01T09:09:16.070Z,57.70
2017-12-01T09:11:44.307Z,59.67
2017-12-01T09:14:11.803Z,64.15
2017-12-01T09:16:39.310Z,51.37
2017-12-01T09:19:06.811Z,44.53
2017-12-01T09:21:35.052Z,54.58
2017-12-01T09:24:02.555Z,49.38
2017-12-01T09:26:30.796Z,54.45
2017-12-01T09:28:58.300Z,55.72
2017-12-01T09:31:25.769Z,51.95
2017-12-01T09:33:53.323Z,57.65
2017-12-01T09:36:20.848Z,50.15
2017-12-01T09:38:48.341Z,55.58
2017-12-01T09:41:15.831Z,54.70
2017-12-01T09:43:43.294Z,51.85
2017-12-01T09:46:10.820Z,51.47
2017-12-01T09:48:38.382Z,49.65
2017-12-01T09:51:05.815Z,46.80
2017-12-01T09:53:34.092Z,46.20
2017-12-01T09:56:02.360Z,38.53
2017-12-01T09:58:30.632Z,42.08
2017-12-01T10:00:58.148Z,41.78
2017-12-01T10:03:25.630Z,40.15
2017-12-01T10:05:53.140Z,44.85
2017-12-01T10:08:20.623Z,53.35
2017-12-01T10:10:48.131Z,42.78
2017-12-01T10:13:16.404Z,38.38
2017-12-01T10:15:43.870Z,45.33
2017-12-01T10:18:12.138Z,35.75
2017-12-01T10:20:39.648Z,35.63
2017-12-01T10:23:07.199Z,35.90
2017-12-01T10:25:34.694Z,42.95
2017-12-01T10:28:02.179Z,34.70
2017-12-01T10:30:29.670Z,44.08
2017-12-01T10:32:57.146Z,43.92
2017-12-01T10:35:24.612Z,36.20
2017-12-01T10:37:52.124Z,35.97
2017-12-01T10:40:20.355Z,44.20
2017-12-01T10:42:47.860Z,39.67
2017-12-01T10:45:16.133Z,37.78
2017-12-01T10:47:44.431Z,37.67
2017-12-01T10:50:11.894Z,34.75
2017-12-01T10:52:39.376Z,32.35
2017-12-01T10:55:06.881Z,25.62
2017-12-01T10:57:35.142Z,27.83
2017-12-01T11:00:02.639Z,20.42
2017-12-01T11:02:30.123Z,17.58
2017-12-01T11:04:57.653Z,18.05
2017-12-01T11:07:25.946Z,19.52
2017-12-01T11:09:53.403Z,18.48
2017-12-01T11:12:20.911Z,19.10
2017-12-01T11:14:48.380Z,15.15
2017-12-01T11:17:15.859Z,14.60
2017-12-01T11:19:43.340Z,16.62
2017-12-01T11:22:10.835Z,19.35
2017-12-01T11:24:38.341Z,18.62
2017-12-01T11:27:06.580Z,21.48
2017-12-01T11:29:34.101Z,21.08
2017-12-01T11:32:01.603Z,16.52
2017-12-01T11:34:29.113Z,18.73
2017-12-01T11:36:56.659Z,18.45
2017-12-01T11:39:24.124Z,17.92
2017-12-01T11:41:51.611Z,13.93
2017-12-01T11:44:19.114Z,13.62
2017-12-01T11:46:47.413Z,13.65
2017-12-01T11:49:14.877Z,11.93
2017-12-01T11:51:42.371Z,14.77
2017-12-01T11:54:09.878Z,12.40
2017-12-01T11:56:37.391Z,11.52
2017-12-01T11:59:04.923Z,14.90
2017-12-01T12:01:32.420Z,13.48
2017-12-01T12:03:59.899Z,15.55
2017-12-01T12:06:28.164Z,16.25
2017-12-01T12:08:55.636Z,15.18
2017-12-01T12:11:23.939Z,12.85
2017-12-01T12:13:51.419Z,15.05
2017-12-01T12:16:18.879Z,17.02
2017-12-01T12:18:46.375Z,14.60
2017-12-01T12:21:13.851Z,12.15
2017-12-01T12:23:42.114Z,12.23
2017-12-01T12:26:10.353Z,10.40
2017-12-01T12:28:37.841Z,10.57
2017-12-01T12:31:05.331Z,8.80
2017-12-01T12:33:33.548Z,7.62
2017-12-01T12:36:01.034Z,7.32
2017-12-01T12:38:28.547Z,11.98
2017-12-01T12:40:56.020Z,9.27
2017-12-01T12:43:23.495Z,6.35
2017-12-01T12:45:51.018Z,5.68
2017-12-01T12:48:18.511Z,8.15
2017-12-01T12:50:45.991Z,7.50
2017-12-01T12:53:13.488Z,7.05
2017-12-01T12:55:41.011Z,7.72
2017-12-01T12:58:08.518Z,6.72
2017-12-01T13:00:36.020Z,7.00
2017-12-01T13:03:03.494Z,7.10
2017-12-01T13:05:31.762Z,6.18
2017-12-01T13:08:00.049Z,5.90
2017-12-01T13:10:28.334Z,7.72
2017-12-01T13:12:56.604Z,7.65
2017-12-01T13:15:24.852Z,6.90
2017-12-01T13:17:52.370Z,6.07
2017-12-01T13:20:19.832Z,6.57
2017-12-01T13:22:47.303Z,7.03
2017-12-01T13:25:15.130Z,6.68
2017-12-01T13:27:43.384Z,6.70
2017-12-01T13:30:10.899Z,6.55
2017-12-01T13:32:38.371Z,8.50
2017-12-01T13:35:05.899Z,8.43
2017-12-01T13:37:33.396Z,8.18
2017-12-01T13:40:00.860Z,8.13
2017-12-01T13:42:28.340Z,7.30
2017-12-01T13:44:55.806Z,7.25
2017-12-01T13:47:24.082Z,13.70
2017-12-01T13:49:52.354Z,9.98
2017-12-01T13:52:20.596Z,16.73
2017-12-01T13:54:48.844Z,13.77
2017-12-01T13:57:16.330Z,9.05
2017-12-01T13:59:43.811Z,8.82
2017-12-01T14:02:11.310Z,11.15
2017-12-01T14:04:39.570Z,7.90
2017-12-01T14:07:08.143Z,10.55
2017-12-01T14:09:35.605Z,9.65
2017-12-01T14:12:03.872Z,9.65
2017-12-01T14:14:31.377Z,16.67
2017-12-01T14:16:58.884Z,10.13
2017-12-01T14:19:26.346Z,22.00
2017-12-01T14:21:53.834Z,16.33
2017-12-01T14:24:22.096Z,10.90
2017-12-01T14:26:50.330Z,12.32
2017-12-01T14:29:17.824Z,11.15
2017-12-01T14:31:45.302Z,12.80
2017-12-01T14:34:13.764Z,12.35
2017-12-01T14:36:41.247Z,14.95
2017-12-01T14:39:08.741Z,11.10
2017-12-01T14:41:36.215Z,18.00
2017-12-01T14:44:03.699Z,15.02
2017-12-01T14:46:31.917Z,12.45
2017-12-01T14:48:59.448Z,13.27
2017-12-01T14:51:27.684Z,11.45
2017-12-01T14:53:55.173Z,12.27
2017-12-01T14:56:22.668Z,10.35
2017-12-01T14:58:50.983Z,12.68
2017-12-01T15:01:18.538Z,12.05
2017-12-01T15:03:46.000Z,12.65
2017-12-01T15:06:13.468Z,15.50
2017-12-01T15:08:40.971Z,16.75
2017-12-01T15:11:08.474Z,15.02
2017-12-01T15:13:36.001Z,14.57
2017-12-01T15:16:03.487Z,14.05
2017-12-01T15:18:30.992Z,14.35
2017-12-01T15:20:59.240Z,12.15
2017-12-01T15:23:26.766Z,23.42
2017-12-01T15:25:54.315Z,15.33
2017-12-01T15:28:21.823Z,14.30
2017-12-01T15:30:49.314Z,16.20
2017-12-01T15:33:17.559Z,17.35
2017-12-01T15:35:45.030Z,14.05
2017-12-01T15:38:13.305Z,12.40
2017-12-01T15:40:41.546Z,11.15
2017-12-01T15:43:09.023Z,15.18
2017-12-01T15:45:36.573Z,13.15
2017-12-01T15:48:04.110Z,11.70
2017-12-01T15:50:31.605Z,12.18
2017-12-01T15:52:59.119Z,13.77
2017-12-01T15:55:26.627Z,12.57
2017-12-01T15:57:55.645Z,11.65
2017-12-01T16:00:23.923Z,15.18
2017-12-01T16:02:52.222Z,17.90
2017-12-01T16:05:19.704Z,11.20
2017-12-01T16:07:47.199Z,24.33
2017-12-01T16:10:14.700Z,40.28
2017-12-01T16:12:42.186Z,69.70
2017-12-01T16:15:09.695Z,41.63
2017-12-01T16:17:37.994Z,27.77
2017-12-01T16:20:05.497Z,17.45
2017-12-01T16:22:33.001Z,11.50
2017-12-01T16:25:00.509Z,13.98
2017-12-01T16:27:28.003Z,16.23
2017-12-01T16:29:56.276Z,17.90
2017-12-01T16:32:24.508Z,57.42
2017-12-01T16:34:52.011Z,53.00
2017-12-01T16:37:20.279Z,33.80
2017-12-01T16:39:47.791Z,44.75
2017-12-01T16:42:15.256Z,34.13
2017-12-01T16:44:42.734Z,41.53
2017-12-01T16:47:10.239Z,25.37
2017-12-01T16:49:37.728Z,32.28
2017-12-01T16:52:05.250Z,34.58
2017-12-01T16:54:32.736Z,32.35
2017-12-01T16:57:00.253Z,35.92
2017-12-01T16:59:28.508Z,34.83
2017-12-01T17:01:57.552Z,18.90
2017-12-01T17:04:25.076Z,17.73
2017-12-01T17:06:52.542Z,118.32
2017-12-01T17:09:20.798Z,41.05
2017-12-01T17:11:48.321Z,21.60
2017-12-01T17:14:15.795Z,34.00
2017-12-01T17:16:43.282Z,23.67
2017-12-01T17:19:10.766Z,25.05
2017-12-01T17:21:39.078Z,21.85
2017-12-01T17:24:06.562Z,18.98
2017-12-01T17:26:34.085Z,15.57
2017-12-01T17:29:01.604Z,17.83
2017-12-01T17:31:29.077Z,18.35
2017-12-01T17:33:57.366Z,20.60
2017-12-01T17:36:24.840Z,22.70
2017-12-01T17:38:52.324Z,19.25
2017-12-01T17:41:19.921Z,21.98
2017-12-01T17:43:48.169Z,26.10
2017-12-01T17:46:15.723Z,25.20
2017-12-01T17:48:43.212Z,27.62
2017-12-01T17:51:10.692Z,35.75
2017-12-01T17:53:38.967Z,31.85
2017-12-01T17:56:07.214Z,24.40
2017-12-01T17:58:34.736Z,38.15
2017-12-01T18:01:02.211Z,34.97
2017-12-01T18:03:29.683Z,28.55
2017-12-01T18:05:57.192Z,23.08
2017-12-01T18:08:24.703Z,28.60
2017-12-01T18:10:52.198Z,27.23
2017-12-01T18:13:19.698Z,28.67
2017-12-01T18:15:47.215Z,23.17
2017-12-01T18:18:15.484Z,23.08
2017-12-01T18:20:43.748Z,25.35
2017-12-01T18:23:11.222Z,26.08
2017-12-01T18:25:40.279Z,28.02
2017-12-01T18:28:07.767Z,33.03
2017-12-01T18:30:36.051Z,32.50
2017-12-01T18:33:04.331Z,36.67
2017-12-01T18:35:32.631Z,29.63
2017-12-01T18:38:00.150Z,32.35
2017-12-01T18:40:27.660Z,29.42
2017-12-01T18:42:55.124Z,25.88
2017-12-01T18:45:22.661Z,27.58
2017-12-01T18:47:50.132Z,28.50
2017-12-01T18:50:17.618Z,30.52
2017-12-01T18:52:45.127Z,27.90
2017-12-01T18:55:13.393Z,28.15
2017-12-01T18:57:41.661Z,35.28
2017-12-01T19:00:09.904Z,29.42
2017-12-01T19:02:37.416Z,30.08
2017-12-01T19:05:04.891Z,35.95
2017-12-01T19:07:32.376Z,35.33
2017-12-01T19:09:59.880Z,30.20
2017-12-01T19:12:28.162Z,35.80
2017-12-01T19:14:56.458Z,31.10
2017-12-01T19:17:23.934Z,28.70
2017-12-01T19:19:51.410Z,33.45
2017-12-01T19:22:18.922Z,41.00
2017-12-01T19:24:47.182Z,34.53
2017-12-01T19:27:15.467Z,31.98
2017-12-01T19:29:43.725Z,38.13
2017-12-01T19:32:11.255Z,36.65
2017-12-01T19:34:38.743Z,34.45
2017-12-01T19:37:06.229Z,36.42
2017-12-01T19:39:33.742Z,31.75
2017-12-01T19:42:01.330Z,33.90
2017-12-01T19:44:29.603Z,34.08
2017-12-01T19:46:57.872Z,32.00
2017-12-01T19:49:25.367Z,37.15
2017-12-01T19:51:52.868Z,32.72
2017-12-01T19:54:20.343Z,30.58
2017-12-01T19:56:47.890Z,30.48
2017-12-01T19:59:15.412Z,32.33
2017-12-01T20:01:42.916Z,36.95
2017-12-01T20:04:10.403Z,32.70
2017-12-01T20:06:38.664Z,36.70
2017-12-01T20:09:06.373Z,38.47
2017-12-01T20:11:33.870Z,37.80
2017-12-01T20:14:01.451Z,38.08
2017-12-01T20:16:33.523Z,52.15
2017-12-01T20:19:01.776Z,58.47
2017-12-01T20:21:29.409Z,41.78
2017-12-01T20:23:56.882Z,41.33
2017-12-01T20:26:24.421Z,37.85
2017-12-01T20:28:52.012Z,34.10
2017-12-01T20:31:19.484Z,37.03
2017-12-01T20:33:47.196Z,40.88
2017-12-01T20:36:14.689Z,38.63
2017-12-01T20:38:42.198Z,33.53
2017-12-01T20:41:09.670Z,33.53
2017-12-01T20:43:37.183Z,34.10
2017-12-01T20:46:04.664Z,39.25
2017-12-01T20:48:32.931Z,26.73
2017-12-01T20:51:00.463Z,33.75
2017-12-01T20:53:27.967Z,36.03
2017-12-01T20:55:56.890Z,33.92
2017-12-01T20:58:24.469Z,35.15
2017-12-01T21:00:51.971Z,34.63
2017-12-01T21:03:20.245Z,33.75
2017-12-01T21:05:48.537Z,35.10
2017-12-01T21:08:16.053Z,33.08
2017-12-01T21:10:43.603Z,37.85
2017-12-01T21:13:11.101Z,31.75
2017-12-01T21:15:39.340Z,30.42
2017-12-01T21:18:06.830Z,39.17
2017-12-01T21:20:35.173Z,31.30
2017-12-01T21:23:02.681Z,33.42
2017-12-01T21:25:30.962Z,32.28
2017-12-01T21:27:59.264Z,33.05
2017-12-01T21:30:26.801Z,32.10
2017-12-01T21:32:54.410Z,32.70
2017-12-01T21:35:21.972Z,36.53
2017-12-01T21:37:49.604Z,39.33
2017-12-01T21:40:17.085Z,39.65
2017-12-01T21:42:44.769Z,41.08
2017-12-01T21:45:13.052Z,34.92
2017-12-01T21:47:40.819Z,36.90
2017-12-01T21:50:09.090Z,31.10
2017-12-01T21:52:36.619Z,33.40
2017-12-01T21:55:04.366Z,34.45
2017-12-01T21:57:31.893Z,34.17
2017-12-01T22:00:00.168Z,38.50
2017-12-01T22:02:28.468Z,28.02
2017-12-01T22:04:55.973Z,29.30
2017-12-01T22:07:23.479Z,32.30
2017-12-01T22:09:50.961Z,36.88
2017-12-01T22:12:18.580Z,31.45
2017-12-01T22:14:46.935Z,29.75
2017-12-01T22:17:16.235Z,28.52
2017-12-01T22:19:43.792Z,26.00
2017-12-01T22:22:11.317Z,28.17
2017-12-01T22:24:38.820Z,30.48
2017-12-01T22:27:06.321Z,28.70
2017-12-01T22:29:34.588Z,25.27
2017-12-01T22:32:02.885Z,30.60
2017-12-01T22:34:30.513Z,22.73
2017-12-01T22:36:59.145Z,26.98
2017-12-01T22:52:31.792Z,23.92
2017-12-01T22:54:59.281Z,28.27
2017-12-01T22:57:26.767Z,50.17
2017-12-01T22:59:54.354Z,28.48
2017-12-01T23:02:22.594Z,23.45
2017-12-01T23:04:50.221Z,25.70
2017-12-01T23:07:17.738Z,19.20
2017-12-01T23:09:45.255Z,21.58
2017-12-01T23:12:12.755Z,22.65
2017-12-01T23:14:40.270Z,25.00
2017-12-01T23:17:07.775Z,26.58
2017-12-01T23:19:35.254Z,25.90
2017-12-01T23:22:03.555Z,22.52
2017-12-01T23:24:31.776Z,23.48
2017-12-01T23:26:59.289Z,27.37
2017-12-01T23:29:26.781Z,28.27
2017-12-01T23:31:55.224Z,24.90
2017-12-01T23:34:22.723Z,29.20
2017-12-01T23:36:50.199Z,26.52
2017-12-01T23:39:17.712Z,28.87
2017-12-01T23:41:47.943Z,28.77
2017-12-01T23:44:15.464Z,32.58
2017-12-01T23:46:43.736Z,28.87
2017-12-01T23:49:11.986Z,29.42
2017-12-01T23:51:39.512Z,31.00
2017-12-01T23:54:06.972Z,31.62
2017-12-01T23:56:34.480Z,31.37
2017-12-01T23:59:02.824Z,37.42
